createdAt,value
2023-05-23T00:01:50.867Z,8.40
2023-05-23T00:04:18.897Z,7.27
2023-05-23T00:06:50.821Z,8.17
2023-05-23T00:09:18.102Z,8.40
2023-05-23T00:11:45.687Z,8.57
2023-05-23T00:14:16.159Z,7.87
2023-05-23T00:16:45.214Z,8.83
2023-05-23T00:19:15.129Z,8.50
2023-05-23T00:21:51.321Z,8.87
2023-05-23T00:24:20.576Z,8.13
2023-05-23T00:26:47.660Z,8.23
2023-05-23T00:29:18.290Z,8.13
2023-05-23T00:31:46.804Z,8.07
2023-05-23T00:34:18.036Z,7.47
2023-05-23T00:36:48.215Z,7.67
2023-05-23T00:39:20.078Z,7.13
2023-05-23T00:41:52.697Z,7.30
2023-05-23T00:44:21.372Z,6.67
2023-05-23T00:46:53.451Z,6.70
2023-05-23T00:49:21.218Z,6.00
2023-05-23T00:51:49.940Z,7.30
2023-05-23T00:54:21.224Z,6.13
2023-05-23T00:56:48.824Z,8.07
2023-05-23T00:59:17.263Z,8.17
2023-05-23T01:01:47.447Z,8.27
2023-05-23T01:04:16.970Z,9.63
2023-05-23T01:06:47.207Z,9.40
2023-05-23T01:09:18.565Z,9.63
2023-05-23T01:12:10.611Z,8.33
2023-05-23T01:14:51.998Z,8.53
2023-05-23T01:17:32.280Z,9.73
2023-05-23T01:20:09.104Z,8.37
2023-05-23T01:22:50.709Z,9.50
2023-05-23T01:26:02.622Z,8.60
2023-05-23T01:28:38.181Z,8.90
2023-05-23T01:31:08.304Z,9.03
2023-05-23T01:33:36.450Z,10.17
2023-05-23T01:36:04.146Z,9.30
2023-05-23T01:38:31.118Z,10.27
2023-05-23T01:40:58.497Z,10.30
2023-05-23T01:43:26.133Z,9.73
2023-05-23T01:45:55.508Z,9.20
2023-05-23T01:48:23.656Z,9.60
2023-05-23T01:50:51.324Z,8.77
2023-05-23T01:53:22.536Z,8.53
2023-05-23T01:55:50.475Z,8.33
2023-05-23T01:58:17.719Z,8.27
2023-05-23T02:00:45.254Z,8.03
2023-05-23T02:03:12.425Z,7.80
2023-05-23T02:05:39.792Z,7.50
2023-05-23T02:08:07.390Z,7.97
2023-05-23T02:10:34.496Z,7.97
2023-05-23T02:13:01.475Z,7.37
2023-05-23T02:15:28.470Z,8.20
2023-05-23T02:17:55.405Z,7.33
2023-05-23T02:20:22.419Z,7.37
2023-05-23T02:22:49.336Z,7.37
2023-05-23T02:25:16.350Z,7.50
2023-05-23T02:27:43.683Z,8.17
2023-05-23T02:30:11.231Z,9.50
2023-05-23T02:32:38.249Z,9.03
2023-05-23T02:35:06.321Z,8.83
2023-05-23T02:37:33.280Z,8.50
2023-05-23T02:40:01.594Z,8.33
2023-05-23T02:42:28.573Z,8.10
2023-05-23T02:44:55.633Z,8.27
2023-05-23T02:47:23.032Z,8.40
2023-05-23T02:49:50.009Z,7.80
2023-05-23T02:52:17.225Z,8.03
2023-05-23T02:54:44.141Z,7.80
2023-05-23T02:57:11.452Z,8.33
2023-05-23T02:59:38.371Z,8.13
2023-05-23T03:02:05.585Z,7.43
2023-05-23T03:04:32.441Z,7.30
2023-05-23T03:06:59.677Z,7.30
2023-05-23T03:09:27.037Z,8.80
2023-05-23T03:11:54.428Z,8.57
2023-05-23T03:14:21.351Z,7.60
2023-05-23T03:16:48.857Z,8.20
2023-05-23T03:19:15.840Z,7.93
2023-05-23T03:21:44.387Z,8.50
2023-05-23T03:24:11.850Z,7.33
2023-05-23T03:26:39.195Z,8.60
2023-05-23T03:29:06.644Z,8.67
2023-05-23T03:31:34.013Z,8.03
2023-05-23T03:34:00.936Z,8.37
2023-05-23T03:36:28.448Z,8.43
2023-05-23T03:38:55.862Z,8.93
2023-05-23T03:41:22.732Z,9.10
2023-05-23T03:43:50.157Z,14.00
2023-05-23T03:46:17.166Z,16.00
2023-05-23T03:48:44.778Z,13.13
2023-05-23T03:51:13.521Z,11.70
2023-05-23T03:53:40.514Z,13.20
2023-05-23T03:56:07.472Z,14.87
2023-05-23T03:58:34.467Z,18.07
2023-05-23T04:01:02.269Z,15.70
2023-05-23T04:03:33.055Z,10.83
2023-05-23T04:06:01.046Z,9.97
2023-05-23T04:08:29.652Z,10.63
2023-05-23T04:10:56.604Z,8.07
2023-05-23T04:13:25.018Z,9.83
2023-05-23T04:15:52.730Z,7.70
2023-05-23T04:18:20.112Z,8.37
2023-05-23T04:20:47.033Z,8.17
2023-05-23T04:23:14.270Z,8.07
2023-05-23T04:25:41.510Z,8.17
2023-05-23T04:28:10.559Z,7.53
2023-05-23T04:30:37.495Z,7.93
2023-05-23T04:33:04.554Z,7.10
2023-05-23T04:35:34.242Z,9.17
2023-05-23T04:38:02.115Z,8.10
2023-05-23T04:40:29.744Z,6.80
2023-05-23T04:42:57.297Z,7.03
2023-05-23T04:45:24.251Z,6.30
2023-05-23T04:47:51.461Z,6.80
2023-05-23T04:50:19.123Z,7.43
2023-05-23T04:52:47.085Z,6.67
2023-05-23T04:55:14.194Z,7.50
2023-05-23T04:57:41.177Z,7.57
2023-05-23T05:00:11.644Z,7.60
2023-05-23T05:02:40.356Z,6.67
2023-05-23T05:05:07.910Z,6.17
2023-05-23T05:07:35.866Z,6.17
2023-05-23T05:10:03.845Z,7.33
2023-05-23T05:12:30.865Z,7.37
2023-05-23T05:14:57.817Z,6.37
2023-05-23T05:17:25.089Z,7.43
2023-05-23T05:19:52.173Z,6.23
2023-05-23T05:22:19.113Z,6.73
2023-05-23T05:24:46.173Z,7.37
2023-05-23T05:27:13.204Z,7.03
2023-05-23T05:29:40.160Z,7.33
2023-05-23T05:32:09.162Z,7.67
2023-05-23T05:34:38.001Z,7.67
2023-05-23T05:37:05.436Z,6.37
2023-05-23T05:39:32.393Z,7.90
2023-05-23T05:42:01.441Z,7.27
2023-05-23T05:44:28.387Z,5.93
2023-05-23T05:46:55.800Z,6.43
2023-05-23T05:49:22.793Z,7.93
2023-05-23T05:51:49.804Z,8.13
2023-05-23T05:54:18.393Z,7.00
2023-05-23T05:56:47.343Z,6.03
2023-05-23T05:59:14.701Z,6.73
2023-05-23T06:01:41.738Z,6.10
2023-05-23T06:04:09.391Z,7.07
2023-05-23T06:06:36.699Z,6.30
2023-05-23T06:09:04.120Z,6.07
2023-05-23T06:11:32.419Z,6.60
2023-05-23T06:13:59.483Z,7.57
2023-05-23T06:16:26.616Z,7.73
2023-05-23T06:18:53.701Z,6.97
2023-05-23T06:21:20.738Z,6.60
2023-05-23T06:23:48.077Z,7.37
2023-05-23T06:26:15.019Z,6.30
2023-05-23T06:28:42.081Z,6.63
2023-05-23T06:31:11.946Z,6.93
2023-05-23T06:33:42.025Z,6.13
2023-05-23T06:36:09.057Z,5.93
2023-05-23T06:38:35.974Z,5.73
2023-05-23T06:41:03.962Z,6.23
2023-05-23T06:43:30.927Z,5.60
2023-05-23T06:45:58.273Z,6.27
2023-05-23T06:48:25.199Z,7.20
2023-05-23T06:50:52.228Z,6.37
2023-05-23T06:53:19.421Z,7.27
2023-05-23T06:55:46.513Z,6.70
2023-05-23T06:58:13.537Z,5.60
2023-05-23T07:00:41.234Z,6.20
2023-05-23T07:03:08.840Z,5.77
2023-05-23T07:05:39.262Z,6.23
2023-05-23T07:08:08.027Z,6.67
2023-05-23T07:10:35.636Z,6.07
2023-05-23T07:13:03.080Z,6.40
2023-05-23T07:15:30.048Z,5.50
2023-05-23T07:17:57.483Z,4.37
2023-05-23T07:20:24.533Z,4.80
2023-05-23T07:22:52.912Z,5.20
2023-05-23T07:25:19.860Z,6.17
2023-05-23T07:27:46.956Z,5.33
2023-05-23T07:30:14.468Z,5.37
2023-05-23T07:32:41.577Z,4.83
2023-05-23T07:35:08.803Z,5.40
2023-05-23T07:37:35.810Z,4.97
2023-05-23T07:40:02.792Z,5.20
2023-05-23T07:42:30.163Z,4.67
2023-05-23T07:44:57.539Z,4.07
2023-05-23T07:47:24.891Z,4.87
2023-05-23T07:49:52.448Z,5.00
2023-05-23T07:52:19.902Z,4.17
2023-05-23T07:54:47.336Z,5.30
2023-05-23T07:57:16.757Z,5.00
2023-05-23T07:59:44.070Z,4.50
2023-05-23T08:02:11.399Z,4.47
2023-05-23T08:04:40.475Z,4.57
2023-05-23T08:07:09.006Z,4.13
2023-05-23T08:09:36.611Z,4.93
2023-05-23T08:12:04.004Z,4.53
2023-05-23T08:14:49.007Z,4.20
2023-05-23T08:17:18.703Z,4.10
2023-05-23T08:19:46.390Z,4.00
2023-05-23T08:22:13.817Z,4.10
2023-05-23T08:24:41.445Z,4.10
2023-05-23T08:27:09.597Z,6.20
2023-05-23T08:29:37.438Z,4.60
2023-05-23T08:32:04.936Z,4.10
2023-05-23T08:34:33.077Z,4.30
2023-05-23T08:37:01.216Z,4.57
2023-05-23T08:39:28.593Z,3.87
2023-05-23T08:41:55.925Z,3.73
2023-05-23T08:44:23.360Z,4.10
2023-05-23T08:46:53.865Z,4.07
2023-05-23T08:49:23.506Z,3.53
2023-05-23T08:51:54.557Z,3.93
2023-05-23T08:54:22.503Z,4.17
2023-05-23T08:56:50.082Z,4.13
2023-05-23T08:59:17.416Z,4.03
2023-05-23T09:01:46.253Z,3.40
2023-05-23T09:04:13.716Z,3.80
2023-05-23T09:06:41.416Z,4.27
2023-05-23T09:09:09.666Z,3.73
2023-05-23T09:11:36.944Z,3.43
2023-05-23T09:14:08.370Z,3.73
2023-05-23T09:16:35.973Z,3.10
2023-05-23T09:19:14.539Z,3.47
2023-05-23T09:21:45.460Z,3.60
2023-05-23T09:24:13.167Z,3.43
2023-05-23T09:26:40.527Z,3.57
2023-05-23T09:29:08.211Z,3.50
2023-05-23T09:31:35.539Z,3.77
2023-05-23T09:34:02.956Z,3.87
2023-05-23T09:36:32.684Z,3.47
2023-05-23T09:39:05.099Z,3.40
2023-05-23T09:41:34.876Z,3.40
2023-05-23T09:44:08.546Z,3.50
2023-05-23T09:46:39.069Z,3.90
2023-05-23T09:49:17.450Z,3.93
2023-05-23T09:51:45.114Z,3.30
2023-05-23T09:54:12.433Z,3.73
2023-05-23T09:56:43.764Z,3.33
2023-05-23T09:59:16.234Z,4.00
2023-05-23T10:01:48.285Z,3.27
2023-05-23T10:04:23.661Z,3.80
2023-05-23T10:06:55.072Z,3.60
2023-05-23T10:09:24.210Z,3.67
2023-05-23T10:11:59.768Z,3.47
2023-05-23T10:14:30.115Z,3.73
2023-05-23T10:17:10.549Z,3.80
2023-05-23T10:19:47.391Z,3.90
2023-05-23T10:22:16.964Z,3.90
2023-05-23T10:24:46.821Z,4.40
2023-05-23T10:27:14.486Z,3.47
2023-05-23T10:29:42.237Z,4.17
2023-05-23T10:32:10.599Z,3.53
2023-05-23T10:35:16.677Z,3.10
2023-05-23T10:37:54.091Z,3.67
2023-05-23T10:40:47.556Z,3.70
2023-05-23T10:43:31.082Z,3.60
2023-05-23T10:45:58.142Z,4.17
2023-05-23T10:48:35.574Z,4.07
2023-05-23T10:51:15.966Z,3.70
2023-05-23T10:53:44.852Z,3.80
2023-05-23T10:56:23.691Z,3.63
2023-05-23T10:58:55.633Z,3.40
2023-05-23T11:01:23.811Z,4.07
2023-05-23T11:03:54.812Z,3.40
2023-05-23T11:06:45.121Z,3.70
2023-05-23T11:09:22.383Z,3.27
2023-05-23T11:12:15.804Z,3.50
2023-05-23T11:14:48.609Z,3.37
2023-05-23T11:17:17.804Z,3.90
2023-05-23T11:20:02.540Z,2.90
2023-05-23T11:22:30.969Z,3.10
2023-05-23T11:24:59.407Z,3.10
2023-05-23T11:27:26.826Z,2.90
2023-05-23T11:30:02.258Z,3.40
2023-05-23T11:32:31.410Z,3.50
2023-05-23T11:35:06.621Z,3.30
2023-05-23T11:37:34.249Z,3.63
2023-05-23T11:40:34.094Z,4.13
2023-05-23T11:43:03.922Z,3.73
2023-05-23T11:45:34.481Z,3.53
2023-05-23T11:48:13.236Z,3.57
2023-05-23T11:50:51.947Z,3.63
2023-05-23T11:53:21.955Z,3.70
2023-05-23T11:55:58.331Z,3.60
2023-05-23T11:58:31.269Z,3.17
2023-05-23T12:01:09.632Z,3.47
2023-05-23T12:03:46.863Z,3.87
2023-05-23T12:06:24.973Z,3.57
2023-05-23T12:08:52.814Z,3.10
2023-05-23T12:11:20.244Z,2.90
2023-05-23T12:13:47.546Z,3.70
2023-05-23T12:16:17.913Z,3.60
2023-05-23T12:18:45.744Z,3.63
2023-05-23T12:21:13.161Z,3.23
2023-05-23T12:23:40.860Z,3.30
2023-05-23T12:26:10.183Z,3.53
2023-05-23T12:28:37.685Z,3.47
2023-05-23T12:31:12.582Z,3.60
2023-05-23T12:33:41.379Z,3.73
2023-05-23T12:36:08.837Z,3.00
2023-05-23T12:38:38.045Z,4.20
2023-05-23T12:41:27.389Z,3.30
2023-05-23T12:43:56.748Z,3.67
2023-05-23T12:46:25.560Z,3.97
2023-05-23T12:48:53.291Z,3.53
2023-05-23T12:51:21.171Z,3.27
2023-05-23T12:53:48.317Z,3.67
2023-05-23T12:56:15.459Z,3.53
2023-05-23T12:58:43.638Z,3.70
2023-05-23T13:01:11.373Z,3.30
2023-05-23T13:03:38.959Z,3.63
2023-05-23T13:06:06.953Z,3.60
2023-05-23T13:08:34.256Z,3.40
2023-05-23T13:11:01.328Z,3.23
2023-05-23T13:13:28.384Z,3.27
2023-05-23T13:15:56.382Z,3.43
2023-05-23T13:18:23.814Z,3.70
2023-05-23T13:20:51.237Z,3.60
2023-05-23T13:23:18.338Z,2.90
2023-05-23T13:25:45.371Z,3.70
2023-05-23T13:28:12.691Z,3.50
2023-05-23T13:30:40.161Z,3.63
2023-05-23T13:33:07.880Z,3.53
2023-05-23T13:35:35.312Z,3.40
2023-05-23T13:38:02.337Z,4.40
2023-05-23T13:40:29.766Z,3.53
2023-05-23T13:42:57.381Z,3.50
2023-05-23T13:45:25.187Z,3.30
2023-05-23T13:47:52.656Z,6.93
2023-05-23T13:50:19.849Z,3.80
2023-05-23T13:52:49.287Z,3.60
2023-05-23T13:55:17.661Z,3.73
2023-05-23T13:57:45.213Z,3.50
2023-05-23T14:00:12.742Z,3.77
2023-05-23T14:02:39.913Z,3.13
2023-05-23T14:05:10.157Z,3.50
2023-05-23T14:07:37.179Z,3.30
2023-05-23T14:10:05.295Z,3.43
2023-05-23T14:12:32.394Z,3.97
2023-05-23T14:14:59.408Z,3.47
2023-05-23T14:17:26.936Z,4.17
2023-05-23T14:19:53.960Z,4.00
2023-05-23T14:22:20.985Z,3.40
2023-05-23T14:24:48.602Z,4.10
2023-05-23T14:27:16.160Z,4.30
2023-05-23T14:29:46.922Z,4.03
2023-05-23T14:32:14.447Z,4.00
2023-05-23T14:34:41.833Z,4.77
2023-05-23T14:37:09.111Z,4.03
2023-05-23T14:39:36.299Z,4.90
2023-05-23T14:42:03.430Z,4.40
2023-05-23T14:44:30.638Z,4.37
2023-05-23T14:46:57.687Z,4.20
2023-05-23T14:49:25.408Z,3.70
2023-05-23T14:51:52.724Z,3.83
2023-05-23T14:54:19.887Z,4.37
2023-05-23T14:56:47.342Z,3.97
2023-05-23T14:59:14.441Z,4.03
2023-05-23T15:01:41.876Z,4.20
2023-05-23T15:04:10.044Z,4.27
2023-05-23T15:06:38.784Z,4.93
2023-05-23T15:09:06.183Z,4.80
2023-05-23T15:11:35.096Z,5.43
2023-05-23T15:14:02.308Z,4.73
2023-05-23T15:16:33.191Z,4.37
2023-05-23T15:19:00.966Z,4.10
2023-05-23T15:21:28.667Z,4.60
2023-05-23T15:23:55.939Z,4.37
2023-05-23T15:26:22.842Z,4.50
2023-05-23T15:28:49.826Z,4.23
2023-05-23T15:31:17.245Z,4.40
2023-05-23T15:33:44.751Z,4.50
2023-05-23T15:36:13.464Z,4.50
2023-05-23T15:38:40.884Z,4.40
2023-05-23T15:41:07.932Z,4.23
2023-05-23T15:43:37.711Z,4.13
2023-05-23T15:46:05.543Z,4.33
2023-05-23T15:48:32.585Z,4.30
2023-05-23T15:50:59.876Z,4.70
2023-05-23T15:53:26.916Z,4.90
2023-05-23T15:55:54.414Z,4.83
2023-05-23T15:58:21.676Z,4.13
2023-05-23T16:00:49.046Z,4.53
2023-05-23T16:03:16.114Z,4.20
2023-05-23T16:05:43.306Z,4.43
2023-05-23T16:08:10.527Z,4.00
2023-05-23T16:10:37.917Z,4.00
2023-05-23T16:13:05.223Z,4.30
2023-05-23T16:15:32.206Z,4.13
2023-05-23T16:18:00.030Z,3.93
2023-05-23T16:20:27.105Z,4.20
2023-05-23T16:22:53.986Z,3.53
2023-05-23T16:25:20.952Z,4.00
2023-05-23T16:27:47.973Z,3.80
2023-05-23T16:30:15.106Z,4.60
2023-05-23T16:32:42.119Z,4.30
2023-05-23T16:35:11.147Z,4.80
2023-05-23T16:37:38.834Z,4.30
2023-05-23T16:40:06.718Z,4.13
2023-05-23T16:42:33.868Z,4.40
2023-05-23T16:45:00.971Z,4.67
2023-05-23T16:47:27.953Z,3.80
2023-05-23T16:49:55.350Z,4.13
2023-05-23T16:52:22.504Z,23.60
2023-05-23T16:54:49.562Z,10.00
2023-05-23T16:57:16.538Z,4.27
2023-05-23T16:59:43.566Z,4.30
2023-05-23T17:02:15.057Z,4.23
2023-05-23T17:04:42.234Z,3.87
2023-05-23T17:07:09.778Z,3.87
2023-05-23T17:09:37.307Z,3.80
2023-05-23T17:12:04.584Z,4.20
2023-05-23T17:14:32.076Z,3.70
2023-05-23T17:16:59.032Z,4.27
2023-05-23T17:19:26.375Z,4.23
2023-05-23T17:21:53.633Z,4.17
2023-05-23T17:24:20.581Z,4.47
2023-05-23T17:26:47.584Z,4.27
2023-05-23T17:29:16.443Z,4.37
2023-05-23T17:31:43.944Z,4.47
2023-05-23T17:34:12.525Z,4.07
2023-05-23T17:36:39.508Z,3.77
2023-05-23T17:39:07.249Z,5.17
2023-05-23T17:41:34.223Z,4.10
2023-05-23T17:44:02.447Z,4.03
2023-05-23T17:46:29.523Z,4.17
2023-05-23T17:48:56.752Z,4.33
2023-05-23T17:51:24.020Z,3.87
2023-05-23T17:53:53.740Z,4.20
2023-05-23T17:56:24.953Z,4.07
2023-05-23T17:58:52.791Z,21.90
2023-05-23T18:01:19.820Z,4.63
2023-05-23T18:03:47.256Z,6.10
2023-05-23T18:06:14.351Z,4.23
2023-05-23T18:08:41.913Z,4.57
2023-05-23T18:11:08.989Z,3.63
2023-05-23T18:13:36.148Z,4.50
2023-05-23T18:16:03.176Z,4.10
2023-05-23T18:18:30.233Z,4.07
2023-05-23T18:20:57.637Z,4.20
2023-05-23T18:23:24.703Z,3.80
2023-05-23T18:25:52.102Z,4.13
2023-05-23T18:28:19.278Z,4.10
2023-05-23T18:30:46.345Z,3.97
2023-05-23T18:33:13.739Z,5.37
2023-05-23T18:35:41.189Z,4.10
2023-05-23T18:38:08.304Z,4.53
2023-05-23T18:40:35.275Z,4.13
2023-05-23T18:43:02.226Z,4.67
2023-05-23T18:45:29.231Z,4.07
2023-05-23T18:47:56.563Z,4.20
2023-05-23T18:50:23.751Z,4.10
2023-05-23T18:52:50.972Z,4.77
2023-05-23T18:55:18.087Z,4.03
2023-05-23T18:57:45.016Z,4.30
2023-05-23T19:00:12.651Z,3.93
2023-05-23T19:02:44.470Z,4.10
2023-05-23T19:05:12.687Z,5.10
2023-05-23T19:07:39.861Z,4.40
2023-05-23T19:10:07.314Z,4.03
2023-05-23T19:12:34.467Z,4.40
2023-05-23T19:15:01.413Z,4.00
2023-05-23T19:17:28.403Z,4.23
2023-05-23T19:19:55.692Z,4.03
2023-05-23T19:22:23.049Z,4.40
2023-05-23T19:24:50.092Z,14.23
2023-05-23T19:27:17.032Z,5.10
2023-05-23T19:29:44.671Z,4.77
2023-05-23T19:32:11.857Z,4.63
2023-05-23T19:34:38.897Z,5.83
2023-05-23T19:37:06.208Z,4.43
2023-05-23T19:39:33.222Z,4.40
2023-05-23T19:42:00.227Z,4.37
2023-05-23T19:44:27.142Z,4.40
2023-05-23T19:46:54.121Z,5.30
2023-05-23T19:49:21.159Z,4.80
2023-05-23T19:51:48.122Z,4.90
2023-05-23T19:54:15.507Z,4.40
2023-05-23T19:56:42.563Z,4.27
2023-05-23T19:59:09.630Z,4.60
2023-05-23T20:01:36.709Z,4.60
2023-05-23T20:04:03.907Z,4.63
2023-05-23T20:06:31.420Z,4.30
2023-05-23T20:08:58.363Z,4.67
2023-05-23T20:11:27.142Z,4.93
2023-05-23T20:13:54.226Z,4.60
2023-05-23T20:16:21.280Z,4.30
2023-05-23T20:18:48.425Z,4.50
2023-05-23T20:21:15.712Z,4.73
2023-05-23T20:23:45.165Z,4.13
2023-05-23T20:26:12.485Z,4.67
2023-05-23T20:28:39.602Z,4.70
2023-05-23T20:31:07.155Z,4.90
2023-05-23T20:33:36.785Z,4.50
2023-05-23T20:36:04.860Z,4.37
2023-05-23T20:38:34.110Z,4.30
2023-05-23T20:41:06.651Z,4.53
2023-05-23T20:43:37.483Z,4.47
2023-05-23T20:46:09.436Z,4.60
2023-05-23T20:48:36.469Z,4.43
2023-05-23T20:51:05.792Z,4.60
2023-05-23T20:53:33.273Z,4.83
2023-05-23T20:56:01.306Z,4.87
2023-05-23T20:58:28.282Z,4.57
2023-05-23T21:00:55.991Z,4.47
2023-05-23T21:03:23.170Z,4.50
2023-05-23T21:05:50.222Z,4.80
2023-05-23T21:08:17.158Z,4.77
2023-05-23T21:10:45.818Z,4.73
2023-05-23T21:13:16.162Z,4.93
2023-05-23T21:15:43.202Z,4.63
2023-05-23T21:18:10.486Z,5.13
2023-05-23T21:20:37.482Z,5.03
2023-05-23T21:23:04.409Z,5.50
2023-05-23T21:25:31.430Z,4.63
2023-05-23T21:27:58.486Z,4.87
2023-05-23T21:30:26.464Z,5.20
2023-05-23T21:32:53.573Z,5.13
2023-05-23T21:35:20.853Z,5.23
2023-05-23T21:37:47.844Z,5.00
2023-05-23T21:40:14.862Z,4.73
2023-05-23T21:42:41.872Z,5.20
2023-05-23T21:45:09.384Z,4.57
2023-05-23T21:47:36.389Z,4.77
2023-05-23T21:50:06.324Z,5.23
2023-05-23T21:52:33.334Z,4.53
2023-05-23T21:55:00.315Z,4.83
2023-05-23T21:57:27.274Z,4.90
2023-05-23T21:59:54.236Z,5.30
2023-05-23T22:02:21.322Z,4.83
2023-05-23T22:04:48.717Z,5.20
2023-05-23T22:07:15.809Z,5.03
2023-05-23T22:09:42.708Z,4.83
2023-05-23T22:12:09.864Z,4.87
2023-05-23T22:14:36.836Z,4.73
2023-05-23T22:17:04.427Z,4.70
2023-05-23T22:19:31.423Z,4.30
2023-05-23T22:21:58.428Z,4.83
2023-05-23T22:24:26.386Z,4.87
2023-05-23T22:26:53.415Z,5.07
2023-05-23T22:29:21.192Z,4.93
2023-05-23T22:31:48.644Z,5.37
2023-05-23T22:34:15.783Z,4.70
2023-05-23T22:36:42.744Z,4.60
2023-05-23T22:39:09.786Z,4.73
2023-05-23T22:41:36.721Z,4.50
2023-05-23T22:44:03.764Z,4.63
2023-05-23T22:46:30.926Z,5.10
2023-05-23T22:48:58.229Z,4.80
2023-05-23T22:51:25.146Z,5.17
2023-05-23T22:53:53.052Z,4.90
2023-05-23T22:56:20.072Z,4.63
2023-05-23T22:58:47.006Z,4.87
2023-05-23T23:01:14.132Z,5.27
2023-05-23T23:03:41.443Z,5.17
2023-05-23T23:06:09.469Z,5.50
2023-05-23T23:08:37.836Z,4.50
2023-05-23T23:11:04.923Z,5.30
2023-05-23T23:13:31.986Z,5.50
2023-05-23T23:15:58.878Z,5.23
2023-05-23T23:18:27.038Z,4.90
2023-05-23T23:20:56.809Z,5.23
2023-05-23T23:23:23.970Z,5.70
2023-05-23T23:25:52.481Z,5.70
2023-05-23T23:28:19.903Z,5.77
2023-05-23T23:30:47.009Z,6.00
2023-05-23T23:33:14.739Z,6.27
2023-05-23T23:35:45.407Z,5.80
2023-05-23T23:38:12.584Z,6.87
2023-05-23T23:40:39.630Z,6.67
2023-05-23T23:43:06.597Z,6.00
2023-05-23T23:45:33.627Z,6.23
2023-05-23T23:48:00.575Z,6.40
2023-05-23T23:50:27.702Z,6.83
2023-05-23T23:52:54.749Z,6.93
2023-05-23T23:55:21.742Z,6.23
2023-05-23T23:57:48.829Z,7.53
